sensor_id;sensor_type;location;lat;lon;timestamp;P1;durP1;ratioP1;P2;durP2;ratioP2
73107;SDS011;61559;50.476;15.588;2023-02-12T00:00:02;8.60;;;4.50;;
73107;SDS011;61559;50.476;15.588;2023-02-12T00:02:54;12.80;;;6.80;;
73107;SDS011;61559;50.476;15.588;2023-02-12T00:05:26;10.60;;;6.10;;
73107;SDS011;61559;50.476;15.588;2023-02-12T00:07:58;8.70;;;5.10;;
73107;SDS011;61559;50.476;15.588;2023-02-12T00:12:58;8.40;;;5.60;;
73107;SDS011;61559;50.476;15.588;2023-02-12T00:15:30;12.80;;;6.90;;
73107;SDS011;61559;50.476;15.588;2023-02-12T00:18:02;14.00;;;6.80;;
73107;SDS011;61559;50.476;15.588;2023-02-12T00:23:03;16.70;;;7.70;;
73107;SDS011;61559;50.476;15.588;2023-02-12T00:25:39;9.30;;;5.60;;
73107;SDS011;61559;50.476;15.588;2023-02-12T00:28:10;11.70;;;5.30;;
73107;SDS011;61559;50.476;15.588;2023-02-12T00:30:41;9.80;;;5.50;;
73107;SDS011;61559;50.476;15.588;2023-02-12T00:33:13;11.10;;;5.80;;
73107;SDS011;61559;50.476;15.588;2023-02-12T00:35:44;12.30;;;4.90;;
73107;SDS011;61559;50.476;15.588;2023-02-12T00:38:23;9.20;;;4.40;;
73107;SDS011;61559;50.476;15.588;2023-02-12T00:40:55;8.20;;;4.60;;
73107;SDS011;61559;50.476;15.588;2023-02-12T00:43:27;8.60;;;3.90;;
73107;SDS011;61559;50.476;15.588;2023-02-12T00:45:58;6.90;;;3.50;;
73107;SDS011;61559;50.476;15.588;2023-02-12T00:48:29;7.40;;;4.60;;
73107;SDS011;61559;50.476;15.588;2023-02-12T00:51:01;10.10;;;4.70;;
73107;SDS011;61559;50.476;15.588;2023-02-12T00:53:33;8.50;;;3.90;;
73107;SDS011;61559;50.476;15.588;2023-02-12T00:56:05;8.60;;;4.90;;
73107;SDS011;61559;50.476;15.588;2023-02-12T00:58:36;7.90;;;4.20;;
73107;SDS011;61559;50.476;15.588;2023-02-12T01:01:07;9.40;;;5.30;;
73107;SDS011;61559;50.476;15.588;2023-02-12T01:06:09;9.50;;;5.20;;
73107;SDS011;61559;50.476;15.588;2023-02-12T01:08:40;9.20;;;4.60;;
73107;SDS011;61559;50.476;15.588;2023-02-12T01:11:11;7.80;;;4.00;;
73107;SDS011;61559;50.476;15.588;2023-02-12T01:13:42;10.00;;;5.00;;
73107;SDS011;61559;50.476;15.588;2023-02-12T01:16:14;9.70;;;5.00;;
73107;SDS011;61559;50.476;15.588;2023-02-12T01:18:47;8.50;;;4.60;;
73107;SDS011;61559;50.476;15.588;2023-02-12T01:21:23;7.40;;;4.60;;
73107;SDS011;61559;50.476;15.588;2023-02-12T01:23:56;9.00;;;4.60;;
73107;SDS011;61559;50.476;15.588;2023-02-12T01:26:28;7.80;;;4.80;;
73107;SDS011;61559;50.476;15.588;2023-02-12T01:29:00;7.50;;;4.10;;
73107;SDS011;61559;50.476;15.588;2023-02-12T01:31:34;11.60;;;5.20;;
73107;SDS011;61559;50.476;15.588;2023-02-12T01:34:07;17.20;;;7.70;;
73107;SDS011;61559;50.476;15.588;2023-02-12T01:36:38;56.10;;;15.80;;
73107;SDS011;61559;50.476;15.588;2023-02-12T01:39:10;22.70;;;7.20;;
73107;SDS011;61559;50.476;15.588;2023-02-12T01:41:42;9.60;;;5.30;;
73107;SDS011;61559;50.476;15.588;2023-02-12T01:44:16;9.70;;;5.30;;
73107;SDS011;61559;50.476;15.588;2023-02-12T01:46:49;9.90;;;5.40;;
73107;SDS011;61559;50.476;15.588;2023-02-12T01:49:23;11.10;;;5.10;;
73107;SDS011;61559;50.476;15.588;2023-02-12T01:52:00;10.50;;;5.00;;
73107;SDS011;61559;50.476;15.588;2023-02-12T01:54:36;8.70;;;4.10;;
73107;SDS011;61559;50.476;15.588;2023-02-12T01:57:08;20.00;;;6.80;;
73107;SDS011;61559;50.476;15.588;2023-02-12T01:59:42;28.00;;;9.70;;
73107;SDS011;61559;50.476;15.588;2023-02-12T02:02:17;20.10;;;6.90;;
73107;SDS011;61559;50.476;15.588;2023-02-12T02:04:51;20.40;;;7.50;;
73107;SDS011;61559;50.476;15.588;2023-02-12T02:07:25;20.10;;;7.50;;
73107;SDS011;61559;50.476;15.588;2023-02-12T02:09:57;21.70;;;8.80;;
73107;SDS011;61559;50.476;15.588;2023-02-12T02:12:30;30.70;;;9.70;;
73107;SDS011;61559;50.476;15.588;2023-02-12T02:15:19;22.70;;;8.70;;
73107;SDS011;61559;50.476;15.588;2023-02-12T02:20:38;11.70;;;5.20;;
73107;SDS011;61559;50.476;15.588;2023-02-12T02:26:36;18.40;;;6.10;;
73107;SDS011;61559;50.476;15.588;2023-02-12T02:32:27;11.40;;;5.30;;
73107;SDS011;61559;50.476;15.588;2023-02-12T02:35:02;14.20;;;6.20;;
73107;SDS011;61559;50.476;15.588;2023-02-12T02:37:40;10.10;;;4.70;;
73107;SDS011;61559;50.476;15.588;2023-02-12T02:40:18;10.10;;;4.60;;
73107;SDS011;61559;50.476;15.588;2023-02-12T02:42:55;14.10;;;5.40;;
73107;SDS011;61559;50.476;15.588;2023-02-12T02:45:32;13.20;;;5.50;;
73107;SDS011;61559;50.476;15.588;2023-02-12T02:48:08;14.30;;;6.40;;
73107;SDS011;61559;50.476;15.588;2023-02-12T02:50:43;12.40;;;5.20;;
73107;SDS011;61559;50.476;15.588;2023-02-12T02:53:18;13.20;;;5.60;;
73107;SDS011;61559;50.476;15.588;2023-02-12T02:55:55;13.70;;;5.80;;
73107;SDS011;61559;50.476;15.588;2023-02-12T02:58:31;10.90;;;4.60;;
73107;SDS011;61559;50.476;15.588;2023-02-12T03:01:08;10.10;;;4.50;;
73107;SDS011;61559;50.476;15.588;2023-02-12T03:03:45;11.30;;;4.80;;
73107;SDS011;61559;50.476;15.588;2023-02-12T03:06:24;12.10;;;5.00;;
73107;SDS011;61559;50.476;15.588;2023-02-12T03:08:59;16.40;;;4.80;;
73107;SDS011;61559;50.476;15.588;2023-02-12T03:11:34;10.50;;;4.10;;
73107;SDS011;61559;50.476;15.588;2023-02-12T03:14:07;26.30;;;8.00;;
73107;SDS011;61559;50.476;15.588;2023-02-12T03:16:45;12.50;;;5.20;;
73107;SDS011;61559;50.476;15.588;2023-02-12T03:19:23;18.10;;;8.30;;
73107;SDS011;61559;50.476;15.588;2023-02-12T03:21:59;35.80;;;12.40;;
73107;SDS011;61559;50.476;15.588;2023-02-12T03:24:35;31.70;;;12.00;;
73107;SDS011;61559;50.476;15.588;2023-02-12T03:27:09;26.90;;;11.30;;
73107;SDS011;61559;50.476;15.588;2023-02-12T03:29:45;32.30;;;12.90;;
73107;SDS011;61559;50.476;15.588;2023-02-12T03:32:21;24.30;;;10.90;;
73107;SDS011;61559;50.476;15.588;2023-02-12T03:35:01;23.40;;;10.30;;
73107;SDS011;61559;50.476;15.588;2023-02-12T03:37:40;19.10;;;8.20;;
73107;SDS011;61559;50.476;15.588;2023-02-12T03:40:16;34.20;;;12.90;;
73107;SDS011;61559;50.476;15.588;2023-02-12T03:42:52;19.70;;;8.50;;
73107;SDS011;61559;50.476;15.588;2023-02-12T03:45:31;20.00;;;8.80;;
73107;SDS011;61559;50.476;15.588;2023-02-12T03:48:10;16.10;;;7.00;;
73107;SDS011;61559;50.476;15.588;2023-02-12T03:50:49;19.60;;;8.20;;
73107;SDS011;61559;50.476;15.588;2023-02-12T03:53:25;15.50;;;8.00;;
73107;SDS011;61559;50.476;15.588;2023-02-12T03:55:58;16.60;;;7.80;;
73107;SDS011;61559;50.476;15.588;2023-02-12T03:58:34;18.70;;;8.10;;
73107;SDS011;61559;50.476;15.588;2023-02-12T04:01:07;16.70;;;7.60;;
73107;SDS011;61559;50.476;15.588;2023-02-12T04:03:39;18.50;;;8.50;;
73107;SDS011;61559;50.476;15.588;2023-02-12T04:06:21;14.80;;;6.70;;
73107;SDS011;61559;50.476;15.588;2023-02-12T04:08:54;15.60;;;7.00;;
73107;SDS011;61559;50.476;15.588;2023-02-12T04:11:30;19.00;;;7.40;;
73107;SDS011;61559;50.476;15.588;2023-02-12T04:14:18;18.10;;;8.40;;
73107;SDS011;61559;50.476;15.588;2023-02-12T04:16:56;19.60;;;9.20;;
73107;SDS011;61559;50.476;15.588;2023-02-12T04:19:38;18.60;;;7.60;;
73107;SDS011;61559;50.476;15.588;2023-02-12T04:22:20;19.20;;;9.10;;
73107;SDS011;61559;50.476;15.588;2023-02-12T04:25:03;23.90;;;10.20;;
73107;SDS011;61559;50.476;15.588;2023-02-12T04:27:45;23.30;;;11.20;;
73107;SDS011;61559;50.476;15.588;2023-02-12T04:30:24;28.40;;;12.80;;
73107;SDS011;61559;50.476;15.588;2023-02-12T04:33:01;22.60;;;10.50;;
73107;SDS011;61559;50.476;15.588;2023-02-12T04:35:37;25.30;;;11.40;;
73107;SDS011;61559;50.476;15.588;2023-02-12T04:38:14;42.00;;;15.10;;
73107;SDS011;61559;50.476;15.588;2023-02-12T04:40:49;118.50;;;30.10;;
73107;SDS011;61559;50.476;15.588;2023-02-12T04:43:26;64.80;;;16.30;;
73107;SDS011;61559;50.476;15.588;2023-02-12T04:46:03;41.10;;;12.70;;
73107;SDS011;61559;50.476;15.588;2023-02-12T04:48:36;38.60;;;12.70;;
73107;SDS011;61559;50.476;15.588;2023-02-12T04:51:18;36.70;;;11.50;;
73107;SDS011;61559;50.476;15.588;2023-02-12T04:53:49;28.00;;;11.50;;
73107;SDS011;61559;50.476;15.588;2023-02-12T04:56:20;33.00;;;11.50;;
73107;SDS011;61559;50.476;15.588;2023-02-12T04:58:52;29.60;;;11.10;;
73107;SDS011;61559;50.476;15.588;2023-02-12T05:01:24;32.30;;;10.40;;
73107;SDS011;61559;50.476;15.588;2023-02-12T05:03:58;35.10;;;12.40;;
73107;SDS011;61559;50.476;15.588;2023-02-12T05:06:29;24.80;;;11.70;;
73107;SDS011;61559;50.476;15.588;2023-02-12T05:09:02;25.80;;;11.50;;
73107;SDS011;61559;50.476;15.588;2023-02-12T05:11:34;24.70;;;11.00;;
73107;SDS011;61559;50.476;15.588;2023-02-12T05:14:05;22.00;;;9.50;;
73107;SDS011;61559;50.476;15.588;2023-02-12T05:16:37;17.80;;;8.10;;
73107;SDS011;61559;50.476;15.588;2023-02-12T05:19:08;19.60;;;8.20;;
73107;SDS011;61559;50.476;15.588;2023-02-12T05:21:39;20.20;;;8.80;;
73107;SDS011;61559;50.476;15.588;2023-02-12T05:24:10;17.20;;;7.80;;
73107;SDS011;61559;50.476;15.588;2023-02-12T05:26:41;13.80;;;6.20;;
73107;SDS011;61559;50.476;15.588;2023-02-12T05:29:12;15.60;;;7.20;;
73107;SDS011;61559;50.476;15.588;2023-02-12T05:31:43;15.80;;;7.40;;
73107;SDS011;61559;50.476;15.588;2023-02-12T05:36:44;13.80;;;6.00;;
73107;SDS011;61559;50.476;15.588;2023-02-12T05:39:15;20.00;;;7.70;;
73107;SDS011;61559;50.476;15.588;2023-02-12T05:41:46;19.70;;;8.60;;
73107;SDS011;61559;50.476;15.588;2023-02-12T05:44:17;17.20;;;7.20;;
73107;SDS011;61559;50.476;15.588;2023-02-12T05:46:48;22.00;;;9.20;;
73107;SDS011;61559;50.476;15.588;2023-02-12T05:49:19;22.70;;;9.60;;
73107;SDS011;61559;50.476;15.588;2023-02-12T05:51:50;30.70;;;10.20;;
73107;SDS011;61559;50.476;15.588;2023-02-12T05:54:21;28.30;;;10.90;;
73107;SDS011;61559;50.476;15.588;2023-02-12T05:56:52;18.90;;;7.10;;
73107;SDS011;61559;50.476;15.588;2023-02-12T05:59:23;12.00;;;5.80;;
73107;SDS011;61559;50.476;15.588;2023-02-12T06:01:54;12.00;;;6.20;;
73107;SDS011;61559;50.476;15.588;2023-02-12T06:04:26;13.70;;;6.70;;
73107;SDS011;61559;50.476;15.588;2023-02-12T06:06:58;11.00;;;5.70;;
73107;SDS011;61559;50.476;15.588;2023-02-12T06:09:29;17.70;;;7.10;;
73107;SDS011;61559;50.476;15.588;2023-02-12T06:12:01;13.20;;;6.50;;
73107;SDS011;61559;50.476;15.588;2023-02-12T06:17:02;10.00;;;4.70;;
73107;SDS011;61559;50.476;15.588;2023-02-12T06:19:33;13.20;;;5.50;;
73107;SDS011;61559;50.476;15.588;2023-02-12T06:22:04;11.80;;;4.70;;
73107;SDS011;61559;50.476;15.588;2023-02-12T06:24:35;10.90;;;5.50;;
73107;SDS011;61559;50.476;15.588;2023-02-12T06:27:06;9.50;;;5.20;;
73107;SDS011;61559;50.476;15.588;2023-02-12T06:29:37;10.40;;;4.70;;
73107;SDS011;61559;50.476;15.588;2023-02-12T06:32:10;9.80;;;5.20;;
73107;SDS011;61559;50.476;15.588;2023-02-12T06:34:42;11.30;;;5.00;;
73107;SDS011;61559;50.476;15.588;2023-02-12T06:37:13;18.90;;;7.50;;
73107;SDS011;61559;50.476;15.588;2023-02-12T06:39:45;14.50;;;5.60;;
73107;SDS011;61559;50.476;15.588;2023-02-12T06:42:16;11.10;;;5.10;;
73107;SDS011;61559;50.476;15.588;2023-02-12T06:44:47;14.30;;;5.70;;
73107;SDS011;61559;50.476;15.588;2023-02-12T06:47:20;9.70;;;4.70;;
73107;SDS011;61559;50.476;15.588;2023-02-12T06:49:51;12.30;;;5.50;;
73107;SDS011;61559;50.476;15.588;2023-02-12T06:52:22;14.50;;;7.00;;
73107;SDS011;61559;50.476;15.588;2023-02-12T06:54:53;19.70;;;9.40;;
73107;SDS011;61559;50.476;15.588;2023-02-12T06:57:24;19.10;;;8.50;;
73107;SDS011;61559;50.476;15.588;2023-02-12T06:59:56;14.20;;;6.50;;
73107;SDS011;61559;50.476;15.588;2023-02-12T07:02:27;10.90;;;5.30;;
73107;SDS011;61559;50.476;15.588;2023-02-12T07:04:58;9.40;;;5.00;;
73107;SDS011;61559;50.476;15.588;2023-02-12T07:07:30;12.30;;;5.40;;
73107;SDS011;61559;50.476;15.588;2023-02-12T07:12:31;15.00;;;6.30;;
73107;SDS011;61559;50.476;15.588;2023-02-12T07:15:03;12.40;;;5.40;;
73107;SDS011;61559;50.476;15.588;2023-02-12T07:17:34;13.20;;;6.10;;
73107;SDS011;61559;50.476;15.588;2023-02-12T07:20:06;12.90;;;5.90;;
73107;SDS011;61559;50.476;15.588;2023-02-12T07:22:40;13.80;;;5.90;;
73107;SDS011;61559;50.476;15.588;2023-02-12T07:25:11;13.70;;;5.50;;
73107;SDS011;61559;50.476;15.588;2023-02-12T07:27:42;13.60;;;6.80;;
73107;SDS011;61559;50.476;15.588;2023-02-12T07:30:14;17.80;;;8.50;;
73107;SDS011;61559;50.476;15.588;2023-02-12T07:32:46;18.50;;;8.60;;
73107;SDS011;61559;50.476;15.588;2023-02-12T07:35:18;21.70;;;9.20;;
73107;SDS011;61559;50.476;15.588;2023-02-12T07:37:48;19.40;;;9.20;;
73107;SDS011;61559;50.476;15.588;2023-02-12T07:40:20;20.30;;;9.10;;
73107;SDS011;61559;50.476;15.588;2023-02-12T07:42:54;17.30;;;8.30;;
73107;SDS011;61559;50.476;15.588;2023-02-12T07:45:25;18.00;;;9.10;;
73107;SDS011;61559;50.476;15.588;2023-02-12T07:47:56;20.50;;;8.40;;
73107;SDS011;61559;50.476;15.588;2023-02-12T07:50:27;30.60;;;10.70;;
73107;SDS011;61559;50.476;15.588;2023-02-12T07:52:59;24.10;;;11.60;;
73107;SDS011;61559;50.476;15.588;2023-02-12T07:55:30;22.30;;;10.00;;
73107;SDS011;61559;50.476;15.588;2023-02-12T07:58:01;24.90;;;10.50;;
73107;SDS011;61559;50.476;15.588;2023-02-12T08:03:01;24.50;;;11.10;;
73107;SDS011;61559;50.476;15.588;2023-02-12T08:05:33;22.50;;;10.20;;
73107;SDS011;61559;50.476;15.588;2023-02-12T08:08:04;25.00;;;11.00;;
73107;SDS011;61559;50.476;15.588;2023-02-12T08:10:35;82.90;;;35.10;;
73107;SDS011;61559;50.476;15.588;2023-02-12T08:15:36;46.40;;;20.60;;
73107;SDS011;61559;50.476;15.588;2023-02-12T08:18:07;33.30;;;17.30;;
73107;SDS011;61559;50.476;15.588;2023-02-12T08:20:38;36.60;;;15.90;;
73107;SDS011;61559;50.476;15.588;2023-02-12T08:23:09;40.10;;;18.70;;
73107;SDS011;61559;50.476;15.588;2023-02-12T08:25:40;54.00;;;21.90;;
73107;SDS011;61559;50.476;15.588;2023-02-12T08:28:11;56.70;;;24.50;;
73107;SDS011;61559;50.476;15.588;2023-02-12T08:30:43;69.80;;;29.60;;
73107;SDS011;61559;50.476;15.588;2023-02-12T08:35:44;53.80;;;24.20;;
73107;SDS011;61559;50.476;15.588;2023-02-12T08:38:15;52.60;;;24.40;;
73107;SDS011;61559;50.476;15.588;2023-02-12T08:40:46;44.40;;;21.80;;
73107;SDS011;61559;50.476;15.588;2023-02-12T08:43:18;55.50;;;23.50;;
73107;SDS011;61559;50.476;15.588;2023-02-12T08:45:49;72.10;;;32.40;;
73107;SDS011;61559;50.476;15.588;2023-02-12T08:48:21;80.40;;;34.00;;
73107;SDS011;61559;50.476;15.588;2023-02-12T08:50:52;70.20;;;29.10;;
73107;SDS011;61559;50.476;15.588;2023-02-12T08:53:24;79.50;;;30.50;;
73107;SDS011;61559;50.476;15.588;2023-02-12T08:55:55;60.90;;;26.30;;
73107;SDS011;61559;50.476;15.588;2023-02-12T08:58:26;63.00;;;25.90;;
73107;SDS011;61559;50.476;15.588;2023-02-12T09:00:57;61.00;;;26.10;;
73107;SDS011;61559;50.476;15.588;2023-02-12T09:03:28;65.80;;;27.70;;
73107;SDS011;61559;50.476;15.588;2023-02-12T09:05:59;79.00;;;31.60;;
73107;SDS011;61559;50.476;15.588;2023-02-12T09:08:31;74.40;;;31.40;;
73107;SDS011;61559;50.476;15.588;2023-02-12T09:11:04;80.30;;;37.70;;
73107;SDS011;61559;50.476;15.588;2023-02-12T09:13:37;75.30;;;36.70;;
73107;SDS011;61559;50.476;15.588;2023-02-12T09:16:08;72.50;;;33.90;;
73107;SDS011;61559;50.476;15.588;2023-02-12T09:18:40;52.90;;;25.80;;
73107;SDS011;61559;50.476;15.588;2023-02-12T09:21:12;58.20;;;27.80;;
73107;SDS011;61559;50.476;15.588;2023-02-12T09:23:44;48.90;;;23.00;;
73107;SDS011;61559;50.476;15.588;2023-02-12T09:26:17;48.00;;;22.60;;
73107;SDS011;61559;50.476;15.588;2023-02-12T09:28:49;74.60;;;39.20;;
73107;SDS011;61559;50.476;15.588;2023-02-12T09:31:22;53.10;;;29.20;;
73107;SDS011;61559;50.476;15.588;2023-02-12T09:33:56;55.10;;;27.20;;
73107;SDS011;61559;50.476;15.588;2023-02-12T09:36:29;67.90;;;32.60;;
73107;SDS011;61559;50.476;15.588;2023-02-12T09:39:01;55.60;;;25.70;;
73107;SDS011;61559;50.476;15.588;2023-02-12T09:44:51;47.80;;;22.20;;
73107;SDS011;61559;50.476;15.588;2023-02-12T09:47:32;48.30;;;24.10;;
73107;SDS011;61559;50.476;15.588;2023-02-12T09:50:14;49.40;;;26.60;;
73107;SDS011;61559;50.476;15.588;2023-02-12T09:52:56;54.00;;;27.70;;
73107;SDS011;61559;50.476;15.588;2023-02-12T09:55:29;52.80;;;29.30;;
73107;SDS011;61559;50.476;15.588;2023-02-12T09:58:02;45.10;;;24.00;;
73107;SDS011;61559;50.476;15.588;2023-02-12T10:00:42;58.50;;;29.50;;
73107;SDS011;61559;50.476;15.588;2023-02-12T10:03:14;59.40;;;30.00;;
73107;SDS011;61559;50.476;15.588;2023-02-12T10:05:46;60.60;;;28.20;;
73107;SDS011;61559;50.476;15.588;2023-02-12T10:08:24;54.30;;;29.40;;
73107;SDS011;61559;50.476;15.588;2023-02-12T10:11:14;49.30;;;25.20;;
73107;SDS011;61559;50.476;15.588;2023-02-12T10:13:57;35.90;;;18.30;;
73107;SDS011;61559;50.476;15.588;2023-02-12T10:16:39;16.00;;;8.20;;
73107;SDS011;61559;50.476;15.588;2023-02-12T10:19:25;13.60;;;6.90;;
73107;SDS011;61559;50.476;15.588;2023-02-12T10:22:08;9.10;;;4.60;;
73107;SDS011;61559;50.476;15.588;2023-02-12T10:24:53;14.30;;;5.20;;
73107;SDS011;61559;50.476;15.588;2023-02-12T10:27:35;15.60;;;9.10;;
73107;SDS011;61559;50.476;15.588;2023-02-12T10:32:57;21.10;;;10.60;;
73107;SDS011;61559;50.476;15.588;2023-02-12T10:35:32;16.00;;;7.50;;
73107;SDS011;61559;50.476;15.588;2023-02-12T10:38:05;12.90;;;5.90;;
73107;SDS011;61559;50.476;15.588;2023-02-12T10:40:44;11.70;;;5.90;;
73107;SDS011;61559;50.476;15.588;2023-02-12T10:43:17;15.10;;;7.00;;
73107;SDS011;61559;50.476;15.588;2023-02-12T10:45:48;15.80;;;8.00;;
73107;SDS011;61559;50.476;15.588;2023-02-12T10:48:22;17.80;;;8.00;;
73107;SDS011;61559;50.476;15.588;2023-02-12T10:51:01;17.20;;;9.00;;
73107;SDS011;61559;50.476;15.588;2023-02-12T10:53:45;17.10;;;8.40;;
73107;SDS011;61559;50.476;15.588;2023-02-12T10:56:17;16.80;;;8.10;;
73107;SDS011;61559;50.476;15.588;2023-02-12T10:58:53;18.20;;;7.80;;
73107;SDS011;61559;50.476;15.588;2023-02-12T11:01:27;20.20;;;8.40;;
73107;SDS011;61559;50.476;15.588;2023-02-12T11:06:59;20.80;;;8.80;;
73107;SDS011;61559;50.476;15.588;2023-02-12T11:09:34;18.20;;;8.50;;
73107;SDS011;61559;50.476;15.588;2023-02-12T11:12:29;19.40;;;11.70;;
73107;SDS011;61559;50.476;15.588;2023-02-12T11:15:03;19.30;;;8.90;;
73107;SDS011;61559;50.476;15.588;2023-02-12T11:17:45;15.60;;;7.60;;
73107;SDS011;61559;50.476;15.588;2023-02-12T11:20:27;13.30;;;5.90;;
73107;SDS011;61559;50.476;15.588;2023-02-12T11:23:03;15.60;;;6.80;;
73107;SDS011;61559;50.476;15.588;2023-02-12T11:25:55;13.70;;;5.50;;
73107;SDS011;61559;50.476;15.588;2023-02-12T11:28:28;11.00;;;5.30;;
73107;SDS011;61559;50.476;15.588;2023-02-12T11:31:02;14.80;;;6.10;;
73107;SDS011;61559;50.476;15.588;2023-02-12T11:34:05;11.30;;;4.90;;
73107;SDS011;61559;50.476;15.588;2023-02-12T11:36:39;11.80;;;5.90;;
73107;SDS011;61559;50.476;15.588;2023-02-12T11:39:17;11.20;;;5.30;;
73107;SDS011;61559;50.476;15.588;2023-02-12T11:41:52;12.80;;;5.70;;
73107;SDS011;61559;50.476;15.588;2023-02-12T11:44:26;14.60;;;6.90;;
73107;SDS011;61559;50.476;15.588;2023-02-12T11:47:03;15.50;;;6.10;;
73107;SDS011;61559;50.476;15.588;2023-02-12T11:49:38;11.30;;;6.00;;
73107;SDS011;61559;50.476;15.588;2023-02-12T11:52:17;11.80;;;6.10;;
73107;SDS011;61559;50.476;15.588;2023-02-12T11:54:52;16.20;;;8.20;;
73107;SDS011;61559;50.476;15.588;2023-02-12T11:57:38;17.70;;;8.40;;
73107;SDS011;61559;50.476;15.588;2023-02-12T12:00:15;24.00;;;12.30;;
73107;SDS011;61559;50.476;15.588;2023-02-12T12:02:52;12.90;;;7.20;;
73107;SDS011;61559;50.476;15.588;2023-02-12T12:05:30;24.30;;;12.10;;
73107;SDS011;61559;50.476;15.588;2023-02-12T12:08:05;13.20;;;6.10;;
73107;SDS011;61559;50.476;15.588;2023-02-12T12:10:43;14.50;;;6.70;;
73107;SDS011;61559;50.476;15.588;2023-02-12T12:13:19;10.90;;;6.20;;
73107;SDS011;61559;50.476;15.588;2023-02-12T12:15:59;13.00;;;6.90;;
73107;SDS011;61559;50.476;15.588;2023-02-12T12:18:57;14.20;;;7.30;;
73107;SDS011;61559;50.476;15.588;2023-02-12T12:21:53;23.30;;;11.00;;
73107;SDS011;61559;50.476;15.588;2023-02-12T12:24:33;13.10;;;6.90;;
73107;SDS011;61559;50.476;15.588;2023-02-12T12:27:11;19.60;;;9.90;;
73107;SDS011;61559;50.476;15.588;2023-02-12T12:30:10;28.40;;;12.40;;
73107;SDS011;61559;50.476;15.588;2023-02-12T12:32:50;16.40;;;8.30;;
73107;SDS011;61559;50.476;15.588;2023-02-12T12:35:26;19.20;;;8.60;;
73107;SDS011;61559;50.476;15.588;2023-02-12T12:38:08;42.50;;;18.40;;
73107;SDS011;61559;50.476;15.588;2023-02-12T12:40:54;14.00;;;7.00;;
73107;SDS011;61559;50.476;15.588;2023-02-12T12:43:36;17.40;;;7.20;;
73107;SDS011;61559;50.476;15.588;2023-02-12T12:52:42;18.40;;;8.50;;
73107;SDS011;61559;50.476;15.588;2023-02-12T12:55:51;25.10;;;11.60;;
73107;SDS011;61559;50.476;15.588;2023-02-12T12:58:34;21.50;;;9.80;;
73107;SDS011;61559;50.476;15.588;2023-02-12T13:01:28;21.50;;;9.90;;
73107;SDS011;61559;50.476;15.588;2023-02-12T13:04:15;34.20;;;13.90;;
73107;SDS011;61559;50.476;15.588;2023-02-12T13:07:11;18.20;;;10.40;;
73107;SDS011;61559;50.476;15.588;2023-02-12T13:12:51;16.80;;;9.10;;
73107;SDS011;61559;50.476;15.588;2023-02-12T13:15:40;16.70;;;8.90;;
73107;SDS011;61559;50.476;15.588;2023-02-12T13:18:19;11.30;;;6.70;;
73107;SDS011;61559;50.476;15.588;2023-02-12T13:21:00;19.10;;;6.40;;
73107;SDS011;61559;50.476;15.588;2023-02-12T13:23:40;17.10;;;10.10;;
73107;SDS011;61559;50.476;15.588;2023-02-12T13:26:20;18.00;;;10.10;;
73107;SDS011;61559;50.476;15.588;2023-02-12T13:28:59;17.10;;;8.50;;
73107;SDS011;61559;50.476;15.588;2023-02-12T13:31:35;15.70;;;8.50;;
73107;SDS011;61559;50.476;15.588;2023-02-12T13:34:13;15.40;;;8.00;;
73107;SDS011;61559;50.476;15.588;2023-02-12T13:36:45;12.70;;;7.20;;
73107;SDS011;61559;50.476;15.588;2023-02-12T13:39:25;17.70;;;8.90;;
73107;SDS011;61559;50.476;15.588;2023-02-12T13:42:03;17.00;;;8.30;;
73107;SDS011;61559;50.476;15.588;2023-02-12T13:44:46;21.00;;;10.60;;
73107;SDS011;61559;50.476;15.588;2023-02-12T13:47:28;22.00;;;10.60;;
73107;SDS011;61559;50.476;15.588;2023-02-12T13:50:05;16.00;;;8.90;;
73107;SDS011;61559;50.476;15.588;2023-02-12T13:52:52;16.20;;;8.20;;
73107;SDS011;61559;50.476;15.588;2023-02-12T13:55:33;13.40;;;7.00;;
73107;SDS011;61559;50.476;15.588;2023-02-12T13:58:44;13.10;;;6.10;;
73107;SDS011;61559;50.476;15.588;2023-02-12T14:04:15;13.10;;;7.80;;
73107;SDS011;61559;50.476;15.588;2023-02-12T14:06:57;10.50;;;5.50;;
73107;SDS011;61559;50.476;15.588;2023-02-12T14:09:35;10.50;;;5.10;;
73107;SDS011;61559;50.476;15.588;2023-02-12T14:12:10;15.50;;;7.60;;
73107;SDS011;61559;50.476;15.588;2023-02-12T14:14:44;11.10;;;5.40;;
73107;SDS011;61559;50.476;15.588;2023-02-12T14:20:26;9.00;;;5.00;;
73107;SDS011;61559;50.476;15.588;2023-02-12T14:23:03;10.40;;;5.40;;
73107;SDS011;61559;50.476;15.588;2023-02-12T14:26:02;13.20;;;6.70;;
73107;SDS011;61559;50.476;15.588;2023-02-12T14:28:44;11.60;;;5.30;;
73107;SDS011;61559;50.476;15.588;2023-02-12T14:31:30;11.80;;;5.90;;
73107;SDS011;61559;50.476;15.588;2023-02-12T14:37:10;12.00;;;6.20;;
73107;SDS011;61559;50.476;15.588;2023-02-12T14:39:46;14.00;;;7.00;;
73107;SDS011;61559;50.476;15.588;2023-02-12T14:45:32;22.60;;;8.80;;
73107;SDS011;61559;50.476;15.588;2023-02-12T14:48:08;13.80;;;6.20;;
73107;SDS011;61559;50.476;15.588;2023-02-12T14:51:15;14.60;;;7.70;;
73107;SDS011;61559;50.476;15.588;2023-02-12T14:53:50;13.30;;;6.30;;
73107;SDS011;61559;50.476;15.588;2023-02-12T14:56:23;18.70;;;7.80;;
73107;SDS011;61559;50.476;15.588;2023-02-12T14:58:55;11.30;;;6.20;;
73107;SDS011;61559;50.476;15.588;2023-02-12T15:01:29;18.80;;;8.90;;
73107;SDS011;61559;50.476;15.588;2023-02-12T15:04:07;9.80;;;5.00;;
73107;SDS011;61559;50.476;15.588;2023-02-12T15:06:47;27.70;;;12.20;;
73107;SDS011;61559;50.476;15.588;2023-02-12T15:09:24;23.40;;;11.00;;
73107;SDS011;61559;50.476;15.588;2023-02-12T15:12:00;19.70;;;9.70;;
73107;SDS011;61559;50.476;15.588;2023-02-12T15:14:35;20.30;;;9.40;;
73107;SDS011;61559;50.476;15.588;2023-02-12T15:17:14;21.50;;;10.80;;
73107;SDS011;61559;50.476;15.588;2023-02-12T15:19:49;63.00;;;31.30;;
73107;SDS011;61559;50.476;15.588;2023-02-12T15:27:52;21.30;;;11.10;;
73107;SDS011;61559;50.476;15.588;2023-02-12T15:30:26;36.50;;;14.20;;
73107;SDS011;61559;50.476;15.588;2023-02-12T15:33:02;17.10;;;8.20;;
73107;SDS011;61559;50.476;15.588;2023-02-12T15:35:35;17.60;;;8.70;;
73107;SDS011;61559;50.476;15.588;2023-02-12T15:38:18;21.40;;;9.30;;
73107;SDS011;61559;50.476;15.588;2023-02-12T15:40:56;15.20;;;7.70;;
73107;SDS011;61559;50.476;15.588;2023-02-12T15:43:29;19.00;;;9.40;;
73107;SDS011;61559;50.476;15.588;2023-02-12T15:46:02;11.10;;;4.60;;
73107;SDS011;61559;50.476;15.588;2023-02-12T15:48:36;9.70;;;5.10;;
73107;SDS011;61559;50.476;15.588;2023-02-12T15:51:08;8.70;;;3.90;;
73107;SDS011;61559;50.476;15.588;2023-02-12T15:53:44;9.70;;;4.30;;
73107;SDS011;61559;50.476;15.588;2023-02-12T15:56:16;10.60;;;4.30;;
73107;SDS011;61559;50.476;15.588;2023-02-12T15:58:50;10.80;;;4.90;;
73107;SDS011;61559;50.476;15.588;2023-02-12T16:01:23;9.10;;;5.20;;
73107;SDS011;61559;50.476;15.588;2023-02-12T16:03:55;11.00;;;5.00;;
73107;SDS011;61559;50.476;15.588;2023-02-12T16:06:30;12.80;;;5.00;;
73107;SDS011;61559;50.476;15.588;2023-02-12T16:09:05;11.00;;;5.30;;
73107;SDS011;61559;50.476;15.588;2023-02-12T16:11:37;10.90;;;5.60;;
73107;SDS011;61559;50.476;15.588;2023-02-12T16:14:17;15.80;;;6.40;;